createdAt,value
2023-04-08T00:00:17.677Z,6.93
2023-04-08T00:02:46.954Z,6.87
2023-04-08T00:05:16.084Z,6.72
2023-04-08T00:07:46.563Z,6.83
2023-04-08T00:10:18.311Z,6.98
2023-04-08T00:12:55.492Z,6.73
2023-04-08T00:15:23.455Z,6.37
2023-04-08T00:17:56.872Z,6.26
2023-04-08T00:23:13.491Z,5.77
2023-04-08T00:28:31.015Z,5.54
2023-04-08T00:31:07.989Z,5.39
2023-04-08T00:33:38.573Z,5.34
2023-04-08T00:36:22.304Z,5.78
2023-04-08T00:38:59.852Z,5.81
2023-04-08T00:41:43.314Z,5.35
2023-04-08T00:44:19.779Z,5.55
2023-04-08T00:46:58.440Z,5.65
2023-04-08T00:49:35.453Z,6.10
2023-04-08T00:52:13.097Z,5.91
2023-04-08T00:54:54.144Z,5.59
2023-04-08T00:57:24.416Z,5.09
2023-04-08T00:59:55.450Z,5.02
2023-04-08T01:02:55.850Z,5.08
2023-04-08T01:05:52.684Z,5.18
2023-04-08T01:08:23.205Z,5.04
2023-04-08T01:11:04.579Z,4.43
2023-04-08T01:13:41.481Z,4.21
2023-04-08T01:19:02.070Z,4.51
2023-04-08T01:21:45.962Z,4.41
2023-04-08T01:24:40.568Z,4.02
2023-04-08T01:27:11.409Z,4.41
2023-04-08T01:29:50.282Z,4.42
2023-04-08T01:32:45.146Z,4.67
2023-04-08T01:35:16.627Z,4.63
2023-04-08T01:37:48.426Z,4.72
2023-04-08T01:40:19.805Z,4.50
2023-04-08T01:42:51.449Z,4.76
2023-04-08T01:45:30.077Z,4.78
2023-04-08T01:48:09.262Z,4.53
2023-04-08T01:50:44.518Z,4.21
2023-04-08T01:53:18.067Z,4.25
2023-04-08T01:56:05.609Z,4.10
2023-04-08T01:58:41.619Z,3.91
2023-04-08T02:01:20.898Z,3.91
2023-04-08T02:04:03.060Z,3.98
2023-04-08T02:09:24.599Z,4.30
2023-04-08T02:11:57.498Z,4.54
2023-04-08T02:14:28.528Z,4.47
2023-04-08T02:17:27.086Z,4.36
2023-04-08T02:20:06.983Z,4.76
2023-04-08T02:23:08.911Z,4.95
2023-04-08T02:25:41.655Z,4.43
2023-04-08T02:28:18.040Z,4.34
2023-04-08T02:30:54.642Z,4.72
2023-04-08T02:33:28.403Z,4.66
2023-04-08T02:36:15.080Z,4.75
2023-04-08T02:38:52.943Z,4.56
2023-04-08T02:41:24.632Z,4.84
2023-04-08T02:44:03.415Z,4.96
2023-04-08T02:46:48.372Z,4.99
2023-04-08T02:49:18.651Z,4.97
2023-04-08T02:51:49.392Z,4.86
2023-04-08T02:54:21.072Z,5.07
2023-04-08T02:56:52.032Z,4.71
2023-04-08T02:59:26.568Z,4.88
2023-04-08T03:02:00.553Z,4.93
2023-04-08T03:04:31.475Z,4.93
2023-04-08T03:07:08.685Z,4.88
2023-04-08T03:09:41.636Z,4.96
2023-04-08T03:12:15.081Z,4.80
2023-04-08T03:14:49.000Z,5.01
2023-04-08T03:17:16.842Z,4.79
2023-04-08T03:19:47.273Z,4.62
2023-04-08T03:22:18.835Z,4.43
2023-04-08T03:24:48.462Z,4.45
2023-04-08T03:27:17.080Z,4.79
2023-04-08T03:29:51.459Z,4.77
2023-04-08T03:32:26.831Z,4.69
2023-04-08T03:34:55.556Z,4.69
2023-04-08T03:37:29.782Z,5.01
2023-04-08T03:40:10.051Z,4.97
2023-04-08T03:42:47.605Z,4.96
2023-04-08T03:45:19.022Z,4.86
2023-04-08T03:47:49.213Z,4.91
2023-04-08T03:50:33.892Z,5.00
2023-04-08T03:53:06.789Z,4.74
2023-04-08T03:55:36.064Z,4.78
2023-04-08T03:58:11.681Z,4.97
2023-04-08T04:00:42.263Z,4.78
2023-04-08T04:03:17.120Z,4.74
2023-04-08T04:05:53.855Z,4.45
2023-04-08T04:08:22.243Z,4.65
2023-04-08T04:11:00.801Z,4.95
2023-04-08T04:13:36.198Z,4.96
2023-04-08T04:16:08.382Z,4.79
2023-04-08T04:18:47.052Z,4.58
2023-04-08T04:21:30.737Z,4.45
2023-04-08T04:24:01.143Z,4.37
2023-04-08T04:26:39.245Z,4.20
2023-04-08T04:29:13.063Z,4.24
2023-04-08T04:31:46.472Z,4.55
2023-04-08T04:37:05.902Z,4.56
2023-04-08T04:39:36.444Z,4.61
2023-04-08T04:44:55.036Z,4.79
2023-04-08T04:47:28.061Z,4.96
2023-04-08T04:50:06.068Z,5.19
2023-04-08T04:52:34.249Z,5.27
2023-04-08T04:55:06.429Z,5.20
2023-04-08T04:57:42.130Z,4.67
2023-04-08T05:00:12.654Z,4.75
2023-04-08T05:02:46.845Z,4.55
2023-04-08T05:05:20.847Z,4.46
2023-04-08T05:07:58.012Z,4.17
2023-04-08T05:10:35.057Z,4.37
2023-04-08T05:13:15.331Z,4.33
2023-04-08T05:15:50.871Z,4.46
2023-04-08T05:18:30.418Z,4.93
2023-04-08T05:21:00.869Z,4.88
2023-04-08T05:23:38.093Z,5.03
2023-04-08T05:26:09.925Z,5.09
2023-04-08T05:31:25.747Z,5.13
2023-04-08T05:34:08.195Z,5.11
2023-04-08T05:36:38.612Z,5.29
2023-04-08T05:39:10.549Z,5.32
2023-04-08T05:41:41.329Z,5.67
2023-04-08T05:44:12.521Z,5.37
2023-04-08T05:46:49.279Z,5.39
2023-04-08T05:49:20.214Z,5.67
2023-04-08T05:51:57.656Z,5.62
2023-04-08T05:54:39.986Z,5.78
2023-04-08T05:57:12.951Z,5.66
2023-04-08T05:59:44.566Z,5.66
2023-04-08T06:02:15.314Z,5.48
2023-04-08T06:04:53.365Z,5.90
2023-04-08T06:07:22.044Z,5.86
2023-04-08T06:09:55.890Z,6.11
2023-04-08T06:12:32.440Z,6.06
2023-04-08T06:15:02.985Z,6.21
2023-04-08T06:17:38.388Z,6.19
2023-04-08T06:20:09.705Z,6.07
2023-04-08T06:22:38.707Z,5.90
2023-04-08T06:27:57.365Z,6.03
2023-04-08T06:30:29.923Z,6.28
2023-04-08T06:33:02.803Z,6.21
2023-04-08T06:35:36.408Z,6.27
2023-04-08T06:38:05.828Z,6.31
2023-04-08T06:40:36.746Z,6.09
2023-04-08T06:43:11.136Z,6.28
2023-04-08T06:45:48.484Z,6.11
2023-04-08T06:48:25.821Z,6.47
2023-04-08T06:50:53.678Z,6.59
2023-04-08T06:53:29.435Z,6.67
2023-04-08T06:55:58.258Z,6.55
2023-04-08T06:58:36.085Z,6.60
2023-04-08T07:01:07.421Z,6.83
2023-04-08T07:03:52.137Z,6.84
2023-04-08T07:06:29.411Z,6.75
2023-04-08T07:09:02.139Z,6.60
2023-04-08T07:11:35.121Z,6.73
2023-04-08T07:14:10.118Z,6.92
2023-04-08T07:16:43.910Z,6.88
2023-04-08T07:19:14.684Z,6.93
2023-04-08T07:21:43.893Z,6.95
2023-04-08T07:24:14.892Z,6.98
2023-04-08T07:27:07.989Z,7.03
2023-04-08T07:29:36.374Z,7.03
2023-04-08T07:32:14.265Z,7.02
2023-04-08T07:34:41.978Z,7.02
2023-04-08T07:37:12.760Z,6.97
2023-04-08T07:39:43.305Z,7.13
2023-04-08T07:42:15.862Z,7.17
2023-04-08T07:44:53.497Z,7.14
2023-04-08T07:47:22.848Z,6.94
2023-04-08T07:50:04.972Z,7.13
2023-04-08T07:52:34.546Z,7.36
2023-04-08T07:55:08.341Z,7.38
2023-04-08T07:57:40.971Z,7.37
2023-04-08T08:00:24.257Z,7.49
2023-04-08T08:02:54.988Z,7.35
2023-04-08T08:05:30.957Z,7.27
2023-04-08T08:08:04.737Z,7.41
2023-04-08T08:10:41.776Z,7.38
2023-04-08T08:13:12.853Z,7.36
2023-04-08T08:15:43.657Z,7.47
2023-04-08T08:18:20.178Z,7.50
2023-04-08T08:20:51.729Z,7.52
2023-04-08T08:23:26.587Z,7.63
2023-04-08T08:26:14.215Z,7.70
2023-04-08T08:28:44.368Z,7.92
2023-04-08T08:31:15.633Z,7.90
2023-04-08T08:33:53.380Z,7.93
2023-04-08T08:36:26.729Z,8.16
2023-04-08T08:39:07.754Z,8.40
2023-04-08T08:41:55.277Z,8.48
2023-04-08T08:44:33.969Z,8.42
2023-04-08T08:47:13.047Z,8.56
2023-04-08T08:49:45.919Z,8.72
2023-04-08T08:52:20.820Z,9.10
2023-04-08T08:54:54.032Z,9.23
2023-04-08T08:57:24.760Z,9.32
2023-04-08T09:00:01.290Z,9.59
2023-04-08T09:02:34.280Z,9.66
2023-04-08T09:05:06.128Z,9.78
2023-04-08T09:07:44.443Z,9.66
2023-04-08T09:10:23.603Z,9.99
2023-04-08T09:13:05.876Z,9.68
2023-04-08T09:15:34.842Z,9.71
2023-04-08T09:18:10.882Z,10.20
2023-04-08T09:20:58.329Z,10.31
2023-04-08T09:23:50.419Z,10.44
2023-04-08T09:26:29.152Z,10.08
2023-04-08T09:29:25.539Z,10.36
2023-04-08T09:32:02.327Z,10.22
2023-04-08T09:34:36.180Z,10.53
2023-04-08T09:37:07.639Z,10.54
2023-04-08T09:39:40.000Z,10.79
2023-04-08T09:42:13.693Z,10.98
2023-04-08T09:44:52.038Z,10.95
2023-04-08T09:47:29.166Z,10.88
2023-04-08T09:50:08.355Z,11.02
2023-04-08T09:52:47.610Z,11.01
2023-04-08T09:55:19.222Z,10.95
2023-04-08T09:58:19.255Z,11.07
2023-04-08T10:00:54.369Z,10.87
2023-04-08T10:03:41.719Z,11.38
2023-04-08T10:06:17.106Z,11.20
2023-04-08T10:11:30.199Z,11.20
2023-04-08T10:13:59.068Z,11.59
2023-04-08T10:16:32.733Z,11.42
2023-04-08T10:19:05.972Z,11.46
2023-04-08T10:21:51.219Z,11.51
2023-04-08T10:24:26.219Z,11.57
2023-04-08T10:27:03.891Z,11.50
2023-04-08T10:29:43.510Z,11.90
2023-04-08T10:32:34.120Z,12.23
2023-04-08T10:35:08.300Z,12.21
2023-04-08T10:37:38.170Z,12.31
2023-04-08T10:40:14.636Z,12.11
2023-04-08T10:42:45.977Z,12.16
2023-04-08T10:45:21.144Z,12.51
2023-04-08T10:50:42.778Z,12.60
2023-04-08T10:53:12.688Z,12.73
2023-04-08T10:55:46.906Z,13.05
2023-04-08T10:58:18.140Z,12.92
2023-04-08T11:00:51.937Z,13.14
2023-04-08T11:06:10.212Z,13.55
2023-04-08T11:08:41.773Z,13.55
2023-04-08T11:11:15.887Z,13.84
2023-04-08T11:13:54.001Z,13.55
2023-04-08T11:16:28.009Z,13.77
2023-04-08T11:19:06.890Z,13.43
2023-04-08T11:21:45.288Z,14.26
2023-04-08T11:24:19.545Z,14.25
2023-04-08T11:27:07.542Z,14.04
2023-04-08T11:29:38.258Z,14.09
2023-04-08T11:32:09.147Z,14.21
2023-04-08T11:34:43.960Z,14.03
2023-04-08T11:37:14.303Z,14.54
2023-04-08T11:39:48.863Z,14.52
2023-04-08T11:42:32.286Z,14.13
2023-04-08T11:45:02.744Z,13.85
2023-04-08T11:47:37.342Z,13.59
2023-04-08T11:50:18.995Z,13.77
2023-04-08T11:52:58.878Z,14.63
2023-04-08T11:55:38.019Z,14.42
2023-04-08T11:58:15.189Z,14.37
2023-04-08T12:00:46.083Z,14.57
2023-04-08T12:03:15.502Z,14.58
2023-04-08T12:05:47.494Z,15.66
2023-04-08T12:08:23.888Z,15.89
2023-04-08T12:10:52.212Z,15.53
2023-04-08T12:13:23.566Z,16.19
2023-04-08T12:15:55.961Z,15.71
2023-04-08T12:18:33.526Z,15.79
2023-04-08T12:21:02.292Z,15.31
2023-04-08T12:23:36.039Z,15.65
2023-04-08T12:26:08.995Z,15.01
2023-04-08T12:28:45.268Z,15.13
2023-04-08T12:31:15.960Z,15.40
2023-04-08T12:33:46.300Z,15.93
2023-04-08T12:39:03.345Z,16.13
2023-04-08T12:41:33.680Z,16.41
2023-04-08T12:44:11.126Z,17.73
2023-04-08T12:46:44.733Z,17.32
2023-04-08T12:49:16.248Z,16.99
2023-04-08T12:51:46.802Z,16.93
2023-04-08T12:54:14.600Z,16.11
2023-04-08T12:56:52.466Z,15.34
2023-04-08T12:59:23.642Z,15.04
2023-04-08T13:01:55.532Z,15.20
2023-04-08T13:04:26.617Z,14.84
2023-04-08T13:07:00.112Z,14.50
2023-04-08T13:09:36.399Z,14.25
2023-04-08T13:12:05.949Z,14.10
2023-04-08T13:14:36.112Z,14.01
2023-04-08T13:17:07.973Z,14.18
2023-04-08T13:19:42.210Z,14.64
2023-04-08T13:22:12.610Z,14.21
2023-04-08T13:24:48.085Z,14.40
2023-04-08T13:27:21.293Z,13.96
2023-04-08T13:29:57.607Z,14.36
2023-04-08T13:32:27.381Z,14.12
2023-04-08T13:34:56.642Z,14.40
2023-04-08T13:37:24.758Z,13.74
2023-04-08T13:39:57.668Z,13.78
2023-04-08T13:42:27.986Z,13.69
2023-04-08T13:44:55.625Z,13.53
2023-04-08T13:47:25.384Z,13.62
2023-04-08T13:49:54.538Z,13.30
2023-04-08T13:52:24.595Z,13.11
2023-04-08T13:54:57.498Z,13.29
2023-04-08T13:57:27.939Z,13.19
2023-04-08T14:00:01.516Z,12.88
2023-04-08T14:02:32.257Z,12.94
2023-04-08T14:05:10.374Z,13.05
2023-04-08T14:07:40.733Z,12.93
2023-04-08T14:10:15.448Z,13.12
2023-04-08T14:12:51.654Z,12.92
2023-04-08T14:15:23.186Z,12.88
2023-04-08T14:18:00.804Z,13.21
2023-04-08T14:20:36.594Z,13.12
2023-04-08T14:23:06.710Z,13.14
2023-04-08T14:25:40.266Z,13.12
2023-04-08T14:28:13.907Z,13.21
2023-04-08T14:31:01.623Z,13.06
2023-04-08T14:33:37.461Z,12.92
2023-04-08T14:36:15.063Z,13.05
2023-04-08T14:38:44.336Z,12.92
2023-04-08T14:41:31.040Z,13.00
2023-04-08T14:44:03.772Z,13.08
2023-04-08T14:46:34.968Z,12.70
2023-04-08T14:49:13.694Z,13.03
2023-04-08T14:51:47.569Z,12.95
2023-04-08T14:54:19.212Z,12.90
2023-04-08T14:56:50.950Z,12.79
2023-04-08T14:59:28.061Z,12.67
2023-04-08T15:01:57.312Z,12.53
2023-04-08T15:04:31.122Z,12.50
2023-04-08T15:07:02.010Z,12.46
2023-04-08T15:09:35.293Z,12.28
2023-04-08T15:12:14.946Z,12.35
2023-04-08T15:14:45.680Z,12.17
2023-04-08T15:17:19.154Z,12.30
2023-04-08T15:19:49.784Z,12.39
2023-04-08T15:22:19.093Z,12.54
2023-04-08T15:24:50.552Z,12.41
2023-04-08T15:27:20.882Z,12.33
2023-04-08T15:29:51.033Z,12.37
2023-04-08T15:32:21.487Z,12.19
2023-04-08T15:34:53.271Z,12.22
2023-04-08T15:37:25.126Z,12.14
2023-04-08T15:39:55.201Z,12.20
2023-04-08T15:42:29.085Z,12.13
2023-04-08T15:45:00.628Z,11.88
2023-04-08T15:47:38.289Z,11.73
2023-04-08T15:50:20.411Z,11.73
2023-04-08T15:52:54.283Z,11.70
2023-04-08T15:55:25.995Z,11.57
2023-04-08T15:58:07.659Z,11.44
2023-04-08T16:01:00.780Z,11.38
2023-04-08T16:03:32.413Z,11.42
2023-04-08T16:06:10.257Z,11.29
2023-04-08T16:08:50.456Z,11.26
2023-04-08T16:11:22.773Z,11.14
2023-04-08T16:13:53.968Z,11.14
2023-04-08T16:16:34.340Z,11.18
2023-04-08T16:19:06.832Z,11.19
2023-04-08T16:21:43.164Z,11.07
2023-04-08T16:24:14.661Z,10.92
2023-04-08T16:26:43.760Z,10.94
2023-04-08T16:29:14.455Z,10.94
2023-04-08T16:31:49.952Z,10.88
2023-04-08T16:34:21.738Z,10.52
2023-04-08T16:36:52.944Z,10.67
2023-04-08T16:39:23.278Z,10.45
2023-04-08T16:41:59.490Z,10.20
2023-04-08T16:44:36.959Z,10.48
2023-04-08T16:47:09.426Z,10.36
2023-04-08T16:49:39.660Z,10.20
2023-04-08T16:52:13.746Z,10.21
2023-04-08T16:57:32.282Z,9.91
2023-04-08T17:00:00.621Z,9.99
2023-04-08T17:02:31.828Z,9.90
2023-04-08T17:05:02.806Z,9.64
2023-04-08T17:07:34.474Z,9.65
2023-04-08T17:12:55.653Z,9.62
2023-04-08T17:15:30.742Z,9.64
2023-04-08T17:17:59.954Z,9.53
2023-04-08T17:20:30.989Z,9.55
2023-04-08T17:23:07.743Z,9.46
2023-04-08T17:25:35.685Z,9.39
2023-04-08T17:28:05.127Z,9.22
2023-04-08T17:30:36.160Z,9.10
2023-04-08T17:33:12.862Z,9.04
2023-04-08T17:35:46.752Z,9.19
2023-04-08T17:38:24.185Z,9.28
2023-04-08T17:41:09.738Z,9.17
2023-04-08T17:43:44.097Z,9.15
2023-04-08T17:46:15.200Z,9.15
2023-04-08T17:48:44.704Z,9.14
2023-04-08T17:51:14.590Z,9.15
2023-04-08T17:53:51.124Z,9.06
2023-04-08T17:56:25.350Z,9.16
2023-04-08T17:58:54.125Z,9.15
2023-04-08T18:01:30.610Z,8.94
2023-04-08T18:04:02.330Z,8.77
2023-04-08T18:06:32.492Z,8.82
2023-04-08T18:09:07.679Z,8.73
2023-04-08T18:11:37.788Z,8.60
2023-04-08T18:14:11.274Z,8.65
2023-04-08T18:16:40.765Z,8.54
2023-04-08T18:19:10.010Z,8.54
2023-04-08T18:21:41.331Z,8.28
2023-04-08T18:24:14.708Z,8.30
2023-04-08T18:26:45.411Z,8.06
2023-04-08T18:29:21.582Z,7.93
2023-04-08T18:31:52.785Z,7.78
2023-04-08T18:34:20.813Z,7.56
2023-04-08T18:36:52.410Z,7.50
2023-04-08T18:39:32.182Z,7.61
2023-04-08T18:42:15.777Z,7.41
2023-04-08T18:44:44.015Z,7.49
2023-04-08T18:47:15.581Z,7.54
2023-04-08T18:49:43.773Z,7.50
2023-04-08T18:52:21.608Z,7.57
2023-04-08T18:54:57.211Z,7.58
2023-04-08T18:57:31.682Z,7.50
2023-04-08T18:59:59.638Z,7.40
2023-04-08T19:02:27.638Z,7.42
2023-04-08T19:05:04.385Z,7.52
2023-04-08T19:07:45.496Z,7.43
2023-04-08T19:10:23.878Z,7.36
2023-04-08T19:13:00.767Z,7.27
2023-04-08T19:15:31.209Z,7.39
2023-04-08T19:18:01.784Z,7.42
2023-04-08T19:20:33.254Z,7.34
2023-04-08T19:23:08.997Z,7.20
2023-04-08T19:25:47.245Z,7.35
2023-04-08T19:28:19.012Z,7.27
2023-04-08T19:30:50.952Z,7.26
2023-04-08T19:33:26.123Z,7.17
2023-04-08T19:35:57.383Z,7.23
2023-04-08T19:38:31.114Z,7.12
2023-04-08T19:41:04.833Z,7.18
2023-04-08T19:43:35.255Z,7.22
2023-04-08T19:46:11.060Z,7.17
2023-04-08T19:48:42.223Z,7.03
2023-04-08T19:51:26.145Z,7.00
2023-04-08T19:54:01.462Z,6.93
2023-04-08T19:56:35.891Z,7.28
2023-04-08T19:59:10.220Z,7.10
2023-04-08T20:04:27.869Z,7.16
2023-04-08T20:07:06.279Z,7.10
2023-04-08T20:09:40.061Z,7.19
2023-04-08T20:12:10.830Z,7.12
2023-04-08T20:14:45.805Z,7.03
2023-04-08T20:17:15.589Z,6.89
2023-04-08T20:19:45.976Z,7.11
2023-04-08T20:22:15.174Z,7.05
2023-04-08T20:24:51.598Z,7.02
2023-04-08T20:30:14.214Z,6.96
2023-04-08T20:32:42.219Z,7.05
2023-04-08T20:35:20.413Z,7.05
2023-04-08T20:37:51.157Z,7.00
2023-04-08T20:40:35.929Z,7.00
2023-04-08T20:43:06.773Z,6.98
2023-04-08T20:45:37.651Z,7.12
2023-04-08T20:48:11.125Z,7.13
2023-04-08T20:50:41.666Z,7.10
2023-04-08T20:53:17.535Z,7.17
2023-04-08T20:55:50.411Z,7.02
2023-04-08T20:58:23.918Z,6.61
2023-04-08T21:01:05.254Z,6.96
2023-04-08T21:03:36.239Z,6.95
2023-04-08T21:06:13.458Z,6.92
2023-04-08T21:08:47.200Z,6.89
2023-04-08T21:11:33.422Z,6.69
2023-04-08T21:14:03.858Z,6.82
2023-04-08T21:16:37.877Z,6.77
2023-04-08T21:19:11.376Z,6.85
2023-04-08T21:24:32.024Z,7.10
2023-04-08T21:27:02.151Z,7.03
2023-04-08T21:29:36.051Z,6.71
2023-04-08T21:37:38.462Z,7.07
2023-04-08T21:40:09.561Z,7.02
2023-04-08T21:42:39.870Z,6.82
2023-04-08T21:45:15.759Z,7.01
2023-04-08T21:47:53.170Z,6.87
2023-04-08T21:50:26.500Z,6.87
2023-04-08T21:52:58.720Z,6.81
2023-04-08T21:55:29.468Z,6.77
2023-04-08T21:58:02.879Z,6.66
2023-04-08T22:00:33.388Z,6.55
2023-04-08T22:03:15.932Z,6.44
2023-04-08T22:05:53.159Z,6.36
2023-04-08T22:08:35.799Z,6.36
2023-04-08T22:11:13.866Z,6.41
2023-04-08T22:13:48.663Z,6.24
2023-04-08T22:16:23.082Z,6.41
2023-04-08T22:18:52.476Z,6.36
2023-04-08T22:21:27.814Z,5.96
2023-04-08T22:24:04.422Z,6.25
2023-04-08T22:26:39.125Z,6.19
2023-04-08T22:29:15.662Z,6.21
2023-04-08T22:31:43.822Z,6.16
2023-04-08T22:34:14.674Z,6.33
2023-04-08T22:36:46.421Z,6.22
2023-04-08T22:39:17.441Z,6.18
2023-04-08T22:41:54.500Z,6.01
2023-04-08T22:44:26.009Z,6.04
2023-04-08T22:47:01.224Z,6.09
2023-04-08T22:49:36.051Z,6.33
2023-04-08T22:52:15.143Z,6.37
2023-04-08T22:54:42.863Z,6.37
2023-04-08T22:57:12.123Z,6.14
2023-04-08T22:59:44.384Z,6.34
2023-04-08T23:02:17.142Z,6.32
2023-04-08T23:04:47.761Z,6.28
2023-04-08T23:07:26.139Z,6.19
2023-04-08T23:09:57.537Z,6.18
2023-04-08T23:12:29.038Z,6.00
2023-04-08T23:17:46.011Z,6.03
2023-04-08T23:23:03.136Z,6.06
2023-04-08T23:25:39.731Z,5.91
2023-04-08T23:28:09.960Z,5.96
2023-04-08T23:33:23.245Z,6.18
2023-04-08T23:35:56.588Z,6.11
2023-04-08T23:38:32.737Z,5.86
2023-04-08T23:41:15.683Z,6.04
2023-04-08T23:43:47.304Z,6.09
2023-04-08T23:49:02.522Z,6.19
2023-04-08T23:51:33.526Z,6.01
2023-04-08T23:54:04.146Z,6.10
2023-04-08T23:56:38.089Z,6.01
2023-04-08T23:59:09.216Z,5.73
